sensor_id;sensor_type;location;lat;lon;timestamp;P1;durP1;ratioP1;P2;durP2;ratioP2
80576;SDS011;69937;52.420;10.538;2024-01-27T00:02:35;6.10;;;4.65;;
80576;SDS011;69937;52.420;10.538;2024-01-27T00:07:35;14.75;;;6.35;;
80576;SDS011;69937;52.420;10.538;2024-01-27T00:12:36;9.02;;;6.47;;
80576;SDS011;69937;52.420;10.538;2024-01-27T00:17:37;10.57;;;5.93;;
80576;SDS011;69937;52.420;10.538;2024-01-27T00:22:38;12.55;;;5.25;;
80576;SDS011;69937;52.420;10.538;2024-01-27T00:27:38;20.13;;;6.20;;
80576;SDS011;69937;52.420;10.538;2024-01-27T00:32:39;12.20;;;5.38;;
80576;SDS011;69937;52.420;10.538;2024-01-27T00:37:39;8.85;;;7.03;;
80576;SDS011;69937;52.420;10.538;2024-01-27T00:42:40;6.05;;;4.25;;
80576;SDS011;69937;52.420;10.538;2024-01-27T00:47:41;11.70;;;6.35;;
80576;SDS011;69937;52.420;10.538;2024-01-27T00:52:41;9.98;;;5.88;;
80576;SDS011;69937;52.420;10.538;2024-01-27T00:57:42;10.43;;;6.80;;
80576;SDS011;69937;52.420;10.538;2024-01-27T01:02:43;12.73;;;6.45;;
80576;SDS011;69937;52.420;10.538;2024-01-27T01:07:43;7.68;;;6.35;;
80576;SDS011;69937;52.420;10.538;2024-01-27T01:12:44;6.55;;;5.20;;
80576;SDS011;69937;52.420;10.538;2024-01-27T01:17:44;10.95;;;5.13;;
80576;SDS011;69937;52.420;10.538;2024-01-27T01:22:45;6.82;;;6.03;;
80576;SDS011;69937;52.420;10.538;2024-01-27T01:27:45;7.30;;;6.72;;
80576;SDS011;69937;52.420;10.538;2024-01-27T01:32:46;13.07;;;5.82;;
80576;SDS011;69937;52.420;10.538;2024-01-27T01:37:47;14.90;;;6.78;;
80576;SDS011;69937;52.420;10.538;2024-01-27T01:42:51;11.43;;;7.55;;
80576;SDS011;69937;52.420;10.538;2024-01-27T01:47:52;13.40;;;6.90;;
80576;SDS011;69937;52.420;10.538;2024-01-27T01:52:52;10.65;;;6.97;;
80576;SDS011;69937;52.420;10.538;2024-01-27T01:57:53;5.93;;;5.53;;
80576;SDS011;69937;52.420;10.538;2024-01-27T02:02:54;9.73;;;5.60;;
80576;SDS011;69937;52.420;10.538;2024-01-27T02:07:54;14.93;;;6.18;;
80576;SDS011;69937;52.420;10.538;2024-01-27T02:12:59;7.82;;;5.25;;
80576;SDS011;69937;52.420;10.538;2024-01-27T02:17:59;7.05;;;5.90;;
80576;SDS011;69937;52.420;10.538;2024-01-27T02:23:00;14.45;;;8.25;;
80576;SDS011;69937;52.420;10.538;2024-01-27T02:28:04;10.23;;;6.22;;
80576;SDS011;69937;52.420;10.538;2024-01-27T02:33:05;8.88;;;6.70;;
80576;SDS011;69937;52.420;10.538;2024-01-27T02:38:06;8.23;;;6.53;;
80576;SDS011;69937;52.420;10.538;2024-01-27T02:43:06;11.38;;;6.00;;
80576;SDS011;69937;52.420;10.538;2024-01-27T02:48:07;12.98;;;7.40;;
80576;SDS011;69937;52.420;10.538;2024-01-27T02:53:07;7.70;;;5.40;;
80576;SDS011;69937;52.420;10.538;2024-01-27T02:58:08;8.98;;;4.72;;
80576;SDS011;69937;52.420;10.538;2024-01-27T03:03:08;21.52;;;6.68;;
80576;SDS011;69937;52.420;10.538;2024-01-27T03:08:09;9.75;;;5.38;;
80576;SDS011;69937;52.420;10.538;2024-01-27T03:13:09;13.63;;;6.63;;
80576;SDS011;69937;52.420;10.538;2024-01-27T03:18:10;11.77;;;7.20;;
80576;SDS011;69937;52.420;10.538;2024-01-27T03:23:11;7.93;;;6.25;;
80576;SDS011;69937;52.420;10.538;2024-01-27T03:28:11;6.63;;;6.03;;
80576;SDS011;69937;52.420;10.538;2024-01-27T03:33:12;18.48;;;6.32;;
80576;SDS011;69937;52.420;10.538;2024-01-27T03:38:12;7.38;;;5.63;;
80576;SDS011;69937;52.420;10.538;2024-01-27T03:43:13;10.60;;;5.80;;
80576;SDS011;69937;52.420;10.538;2024-01-27T03:48:13;24.65;;;6.25;;
80576;SDS011;69937;52.420;10.538;2024-01-27T03:53:14;26.33;;;7.65;;
80576;SDS011;69937;52.420;10.538;2024-01-27T03:58:15;14.63;;;6.93;;
80576;SDS011;69937;52.420;10.538;2024-01-27T04:03:15;15.45;;;7.10;;
80576;SDS011;69937;52.420;10.538;2024-01-27T04:08:16;16.25;;;6.38;;
80576;SDS011;69937;52.420;10.538;2024-01-27T04:13:16;11.20;;;10.02;;
80576;SDS011;69937;52.420;10.538;2024-01-27T04:18:17;10.05;;;6.10;;
80576;SDS011;69937;52.420;10.538;2024-01-27T04:23:17;8.13;;;5.93;;
80576;SDS011;69937;52.420;10.538;2024-01-27T04:28:18;7.65;;;6.82;;
80576;SDS011;69937;52.420;10.538;2024-01-27T04:33:18;6.35;;;5.75;;
80576;SDS011;69937;52.420;10.538;2024-01-27T04:38:19;6.88;;;5.80;;
80576;SDS011;69937;52.420;10.538;2024-01-27T04:43:19;8.50;;;5.07;;
80576;SDS011;69937;52.420;10.538;2024-01-27T04:48:23;11.68;;;7.10;;
80576;SDS011;69937;52.420;10.538;2024-01-27T04:53:23;10.95;;;5.93;;
80576;SDS011;69937;52.420;10.538;2024-01-27T04:58:24;7.30;;;6.65;;
80576;SDS011;69937;52.420;10.538;2024-01-27T05:03:24;16.23;;;9.18;;
80576;SDS011;69937;52.420;10.538;2024-01-27T05:08:25;11.65;;;6.47;;
80576;SDS011;69937;52.420;10.538;2024-01-27T05:13:25;8.15;;;5.68;;
80576;SDS011;69937;52.420;10.538;2024-01-27T05:18:26;14.38;;;6.40;;
80576;SDS011;69937;52.420;10.538;2024-01-27T05:23:26;13.52;;;7.55;;
80576;SDS011;69937;52.420;10.538;2024-01-27T05:28:27;13.23;;;7.47;;
80576;SDS011;69937;52.420;10.538;2024-01-27T05:33:28;18.55;;;8.43;;
80576;SDS011;69937;52.420;10.538;2024-01-27T05:38:28;11.77;;;10.70;;
80576;SDS011;69937;52.420;10.538;2024-01-27T05:43:30;13.65;;;7.30;;
80576;SDS011;69937;52.420;10.538;2024-01-27T05:48:31;8.45;;;7.60;;
80576;SDS011;69937;52.420;10.538;2024-01-27T05:53:34;8.65;;;7.05;;
80576;SDS011;69937;52.420;10.538;2024-01-27T05:58:36;15.32;;;7.40;;
80576;SDS011;69937;52.420;10.538;2024-01-27T06:03:36;15.00;;;8.25;;
80576;SDS011;69937;52.420;10.538;2024-01-27T06:08:37;10.27;;;9.45;;
80576;SDS011;69937;52.420;10.538;2024-01-27T06:13:37;7.93;;;7.32;;
80576;SDS011;69937;52.420;10.538;2024-01-27T06:18:39;8.75;;;7.97;;
80576;SDS011;69937;52.420;10.538;2024-01-27T06:23:40;10.23;;;7.93;;
80576;SDS011;69937;52.420;10.538;2024-01-27T06:28:41;9.32;;;7.50;;
80576;SDS011;69937;52.420;10.538;2024-01-27T06:33:41;13.45;;;8.32;;
80576;SDS011;69937;52.420;10.538;2024-01-27T06:38:42;13.63;;;9.18;;
80576;SDS011;69937;52.420;10.538;2024-01-27T06:43:42;16.95;;;7.40;;
80576;SDS011;69937;52.420;10.538;2024-01-27T06:48:43;11.50;;;7.57;;
80576;SDS011;69937;52.420;10.538;2024-01-27T06:53:43;12.27;;;9.48;;
80576;SDS011;69937;52.420;10.538;2024-01-27T06:58:44;9.10;;;7.03;;
80576;SDS011;69937;52.420;10.538;2024-01-27T07:03:44;10.93;;;9.00;;
80576;SDS011;69937;52.420;10.538;2024-01-27T07:08:45;14.60;;;8.43;;
80576;SDS011;69937;52.420;10.538;2024-01-27T07:13:46;8.07;;;7.55;;
80576;SDS011;69937;52.420;10.538;2024-01-27T07:18:46;9.15;;;8.40;;
80576;SDS011;69937;52.420;10.538;2024-01-27T07:23:47;9.68;;;8.80;;
80576;SDS011;69937;52.420;10.538;2024-01-27T07:28:47;11.68;;;6.90;;
80576;SDS011;69937;52.420;10.538;2024-01-27T07:33:48;16.48;;;6.63;;
80576;SDS011;69937;52.420;10.538;2024-01-27T07:38:48;9.23;;;8.23;;
80576;SDS011;69937;52.420;10.538;2024-01-27T07:43:49;13.73;;;12.43;;
80576;SDS011;69937;52.420;10.538;2024-01-27T07:48:49;8.43;;;6.53;;
80576;SDS011;69937;52.420;10.538;2024-01-27T07:53:50;15.65;;;11.48;;
80576;SDS011;69937;52.420;10.538;2024-01-27T07:58:50;9.00;;;7.43;;
80576;SDS011;69937;52.420;10.538;2024-01-27T08:03:51;9.13;;;7.78;;
80576;SDS011;69937;52.420;10.538;2024-01-27T08:08:52;8.77;;;7.70;;
80576;SDS011;69937;52.420;10.538;2024-01-27T08:13:52;10.25;;;8.27;;
80576;SDS011;69937;52.420;10.538;2024-01-27T08:18:54;10.60;;;7.82;;
80576;SDS011;69937;52.420;10.538;2024-01-27T08:23:54;12.75;;;8.10;;
80576;SDS011;69937;52.420;10.538;2024-01-27T08:28:55;7.90;;;7.10;;
80576;SDS011;69937;52.420;10.538;2024-01-27T08:33:56;11.85;;;7.45;;
80576;SDS011;69937;52.420;10.538;2024-01-27T08:38:57;11.73;;;7.32;;
80576;SDS011;69937;52.420;10.538;2024-01-27T08:43:57;11.38;;;6.40;;
80576;SDS011;69937;52.420;10.538;2024-01-27T08:49:01;12.57;;;7.72;;
80576;SDS011;69937;52.420;10.538;2024-01-27T08:54:02;14.57;;;10.15;;
80576;SDS011;69937;52.420;10.538;2024-01-27T08:59:03;6.15;;;5.45;;
80576;SDS011;69937;52.420;10.538;2024-01-27T09:04:03;8.05;;;6.85;;
80576;SDS011;69937;52.420;10.538;2024-01-27T09:09:04;11.20;;;6.35;;
80576;SDS011;69937;52.420;10.538;2024-01-27T09:14:04;13.70;;;5.97;;
80576;SDS011;69937;52.420;10.538;2024-01-27T09:19:07;9.90;;;4.50;;
80576;SDS011;69937;52.420;10.538;2024-01-27T09:24:08;11.82;;;4.75;;
80576;SDS011;69937;52.420;10.538;2024-01-27T09:29:08;16.50;;;6.07;;
80576;SDS011;69937;52.420;10.538;2024-01-27T09:34:09;9.73;;;4.78;;
80576;SDS011;69937;52.420;10.538;2024-01-27T09:39:09;12.55;;;4.68;;
80576;SDS011;69937;52.420;10.538;2024-01-27T09:44:10;11.32;;;4.50;;
80576;SDS011;69937;52.420;10.538;2024-01-27T09:49:12;8.25;;;3.92;;
80576;SDS011;69937;52.420;10.538;2024-01-27T09:54:13;11.02;;;4.35;;
80576;SDS011;69937;52.420;10.538;2024-01-27T09:59:14;8.50;;;4.20;;
80576;SDS011;69937;52.420;10.538;2024-01-27T10:04:18;13.63;;;4.03;;
80576;SDS011;69937;52.420;10.538;2024-01-27T10:09:20;14.18;;;4.43;;
80576;SDS011;69937;52.420;10.538;2024-01-27T10:14:21;11.00;;;4.35;;
80576;SDS011;69937;52.420;10.538;2024-01-27T10:19:22;10.32;;;4.38;;
80576;SDS011;69937;52.420;10.538;2024-01-27T10:24:22;15.95;;;4.15;;
80576;SDS011;69937;52.420;10.538;2024-01-27T10:29:23;7.80;;;5.47;;
80576;SDS011;69937;52.420;10.538;2024-01-27T10:34:23;9.45;;;4.35;;
80576;SDS011;69937;52.420;10.538;2024-01-27T10:39:24;9.95;;;3.80;;
80576;SDS011;69937;52.420;10.538;2024-01-27T10:44:25;11.20;;;3.78;;
80576;SDS011;69937;52.420;10.538;2024-01-27T10:49:28;16.10;;;4.32;;
80576;SDS011;69937;52.420;10.538;2024-01-27T10:54:32;11.95;;;3.95;;
80576;SDS011;69937;52.420;10.538;2024-01-27T10:59:34;19.02;;;4.50;;
80576;SDS011;69937;52.420;10.538;2024-01-27T11:04:36;9.38;;;3.75;;
80576;SDS011;69937;52.420;10.538;2024-01-27T11:09:39;10.02;;;5.13;;
80576;SDS011;69937;52.420;10.538;2024-01-27T11:14:41;9.82;;;3.50;;
80576;SDS011;69937;52.420;10.538;2024-01-27T11:19:42;10.73;;;3.42;;
80576;SDS011;69937;52.420;10.538;2024-01-27T11:24:44;13.02;;;3.60;;
80576;SDS011;69937;52.420;10.538;2024-01-27T11:29:47;7.63;;;4.93;;
80576;SDS011;69937;52.420;10.538;2024-01-27T11:34:49;12.10;;;4.15;;
80576;SDS011;69937;52.420;10.538;2024-01-27T11:39:49;12.90;;;4.32;;
80576;SDS011;69937;52.420;10.538;2024-01-27T11:44:50;9.98;;;3.38;;
80576;SDS011;69937;52.420;10.538;2024-01-27T11:49:51;8.65;;;3.10;;
80576;SDS011;69937;52.420;10.538;2024-01-27T11:54:56;14.90;;;3.65;;
80576;SDS011;69937;52.420;10.538;2024-01-27T11:59:58;11.75;;;3.92;;
80576;SDS011;69937;52.420;10.538;2024-01-27T12:04:58;10.48;;;3.38;;
80576;SDS011;69937;52.420;10.538;2024-01-27T12:09:59;11.27;;;3.75;;
80576;SDS011;69937;52.420;10.538;2024-01-27T12:15:00;13.48;;;4.05;;
80576;SDS011;69937;52.420;10.538;2024-01-27T12:20:03;10.18;;;3.80;;
80576;SDS011;69937;52.420;10.538;2024-01-27T12:25:15;17.25;;;3.65;;
80576;SDS011;69937;52.420;10.538;2024-01-27T12:30:15;14.35;;;3.38;;
80576;SDS011;69937;52.420;10.538;2024-01-27T12:35:16;12.27;;;3.70;;
80576;SDS011;69937;52.420;10.538;2024-01-27T12:40:17;12.70;;;3.70;;
80576;SDS011;69937;52.420;10.538;2024-01-27T12:45:19;8.93;;;3.97;;
80576;SDS011;69937;52.420;10.538;2024-01-27T12:50:19;13.82;;;4.03;;
80576;SDS011;69937;52.420;10.538;2024-01-27T12:55:20;10.93;;;3.45;;
80576;SDS011;69937;52.420;10.538;2024-01-27T13:00:20;10.85;;;3.15;;
80576;SDS011;69937;52.420;10.538;2024-01-27T13:05:22;12.75;;;3.33;;
80576;SDS011;69937;52.420;10.538;2024-01-27T13:10:22;10.55;;;3.47;;
80576;SDS011;69937;52.420;10.538;2024-01-27T13:15:23;13.52;;;3.03;;
80576;SDS011;69937;52.420;10.538;2024-01-27T13:20:25;12.18;;;2.65;;
80576;SDS011;69937;52.420;10.538;2024-01-27T13:25:25;5.68;;;2.28;;
80576;SDS011;69937;52.420;10.538;2024-01-27T13:30:26;8.48;;;1.77;;
80576;SDS011;69937;52.420;10.538;2024-01-27T13:35:28;7.93;;;2.00;;
80576;SDS011;69937;52.420;10.538;2024-01-27T13:40:28;8.27;;;2.42;;
80576;SDS011;69937;52.420;10.538;2024-01-27T13:45:29;17.77;;;2.15;;
80576;SDS011;69937;52.420;10.538;2024-01-27T13:50:30;8.77;;;1.42;;
80576;SDS011;69937;52.420;10.538;2024-01-27T13:55:31;8.77;;;1.83;;
80576;SDS011;69937;52.420;10.538;2024-01-27T14:00:32;8.27;;;1.65;;
80576;SDS011;69937;52.420;10.538;2024-01-27T14:05:34;10.23;;;1.92;;
80576;SDS011;69937;52.420;10.538;2024-01-27T14:10:35;10.13;;;1.50;;
80576;SDS011;69937;52.420;10.538;2024-01-27T14:15:36;9.48;;;1.98;;
80576;SDS011;69937;52.420;10.538;2024-01-27T14:20:37;9.30;;;2.00;;
80576;SDS011;69937;52.420;10.538;2024-01-27T14:25:37;9.07;;;1.80;;
80576;SDS011;69937;52.420;10.538;2024-01-27T14:30:38;11.07;;;1.80;;
80576;SDS011;69937;52.420;10.538;2024-01-27T14:35:39;6.57;;;1.48;;
80576;SDS011;69937;52.420;10.538;2024-01-27T14:40:40;13.88;;;1.70;;
80576;SDS011;69937;52.420;10.538;2024-01-27T14:45:40;12.05;;;2.08;;
80576;SDS011;69937;52.420;10.538;2024-01-27T14:50:42;7.15;;;1.48;;
80576;SDS011;69937;52.420;10.538;2024-01-27T14:55:43;11.48;;;1.92;;
80576;SDS011;69937;52.420;10.538;2024-01-27T15:00:44;8.98;;;2.10;;
80576;SDS011;69937;52.420;10.538;2024-01-27T15:05:52;9.88;;;2.13;;
80576;SDS011;69937;52.420;10.538;2024-01-27T15:10:52;5.93;;;3.03;;
80576;SDS011;69937;52.420;10.538;2024-01-27T15:15:53;11.90;;;2.53;;
80576;SDS011;69937;52.420;10.538;2024-01-27T15:20:53;7.53;;;3.35;;
80576;SDS011;69937;52.420;10.538;2024-01-27T15:25:54;7.85;;;2.80;;
80576;SDS011;69937;52.420;10.538;2024-01-27T15:30:55;8.25;;;3.08;;
80576;SDS011;69937;52.420;10.538;2024-01-27T15:35:56;11.55;;;4.93;;
80576;SDS011;69937;52.420;10.538;2024-01-27T15:40:57;13.38;;;6.45;;
80576;SDS011;69937;52.420;10.538;2024-01-27T15:45:57;14.15;;;3.95;;
80576;SDS011;69937;52.420;10.538;2024-01-27T15:51:03;13.02;;;3.97;;
80576;SDS011;69937;52.420;10.538;2024-01-27T15:56:04;7.03;;;3.83;;
80576;SDS011;69937;52.420;10.538;2024-01-27T16:01:05;11.55;;;4.65;;
80576;SDS011;69937;52.420;10.538;2024-01-27T16:06:05;10.88;;;4.47;;
80576;SDS011;69937;52.420;10.538;2024-01-27T16:11:07;13.07;;;5.07;;
80576;SDS011;69937;52.420;10.538;2024-01-27T16:16:08;15.48;;;5.70;;
80576;SDS011;69937;52.420;10.538;2024-01-27T16:21:09;10.40;;;4.40;;
80576;SDS011;69937;52.420;10.538;2024-01-27T16:26:09;10.90;;;4.88;;
80576;SDS011;69937;52.420;10.538;2024-01-27T16:31:10;7.38;;;4.45;;
80576;SDS011;69937;52.420;10.538;2024-01-27T16:36:10;12.52;;;4.93;;
80576;SDS011;69937;52.420;10.538;2024-01-27T16:41:11;9.68;;;4.63;;
80576;SDS011;69937;52.420;10.538;2024-01-27T16:46:11;10.05;;;4.50;;
80576;SDS011;69937;52.420;10.538;2024-01-27T16:51:12;9.95;;;4.47;;
80576;SDS011;69937;52.420;10.538;2024-01-27T16:56:12;17.95;;;6.57;;
80576;SDS011;69937;52.420;10.538;2024-01-27T17:01:13;18.08;;;6.28;;
80576;SDS011;69937;52.420;10.538;2024-01-27T17:06:13;11.55;;;5.30;;
80576;SDS011;69937;52.420;10.538;2024-01-27T17:11:14;8.25;;;5.32;;
80576;SDS011;69937;52.420;10.538;2024-01-27T17:16:17;11.88;;;6.82;;
80576;SDS011;69937;52.420;10.538;2024-01-27T17:21:18;10.90;;;5.95;;
80576;SDS011;69937;52.420;10.538;2024-01-27T17:26:21;11.07;;;5.95;;
80576;SDS011;69937;52.420;10.538;2024-01-27T17:31:22;8.52;;;4.80;;
80576;SDS011;69937;52.420;10.538;2024-01-27T17:36:23;8.75;;;5.50;;
80576;SDS011;69937;52.420;10.538;2024-01-27T17:41:24;6.38;;;5.10;;
80576;SDS011;69937;52.420;10.538;2024-01-27T17:46:24;9.32;;;6.25;;
80576;SDS011;69937;52.420;10.538;2024-01-27T17:51:25;9.95;;;8.90;;
80576;SDS011;69937;52.420;10.538;2024-01-27T17:56:25;14.73;;;7.00;;
80576;SDS011;69937;52.420;10.538;2024-01-27T18:01:26;9.77;;;5.60;;
80576;SDS011;69937;52.420;10.538;2024-01-27T18:06:26;17.92;;;8.20;;
80576;SDS011;69937;52.420;10.538;2024-01-27T18:11:28;15.75;;;6.40;;
80576;SDS011;69937;52.420;10.538;2024-01-27T18:16:29;17.33;;;6.85;;
80576;SDS011;69937;52.420;10.538;2024-01-27T18:21:29;12.98;;;9.05;;
80576;SDS011;69937;52.420;10.538;2024-01-27T18:26:30;9.77;;;8.05;;
80576;SDS011;69937;52.420;10.538;2024-01-27T18:31:31;25.00;;;8.55;;
80576;SDS011;69937;52.420;10.538;2024-01-27T18:36:31;10.55;;;7.55;;
80576;SDS011;69937;52.420;10.538;2024-01-27T18:41:32;15.68;;;6.88;;
80576;SDS011;69937;52.420;10.538;2024-01-27T18:46:34;30.13;;;14.05;;
80576;SDS011;69937;52.420;10.538;2024-01-27T18:51:35;15.48;;;9.35;;
80576;SDS011;69937;52.420;10.538;2024-01-27T18:56:35;11.05;;;8.13;;
80576;SDS011;69937;52.420;10.538;2024-01-27T19:01:36;9.52;;;6.95;;
80576;SDS011;69937;52.420;10.538;2024-01-27T19:06:36;8.02;;;6.85;;
80576;SDS011;69937;52.420;10.538;2024-01-27T19:11:37;15.32;;;8.27;;
80576;SDS011;69937;52.420;10.538;2024-01-27T19:16:40;19.52;;;9.15;;
80576;SDS011;69937;52.420;10.538;2024-01-27T19:21:40;17.38;;;10.50;;
80576;SDS011;69937;52.420;10.538;2024-01-27T19:26:41;19.35;;;10.02;;
80576;SDS011;69937;52.420;10.538;2024-01-27T19:31:43;16.42;;;8.27;;
80576;SDS011;69937;52.420;10.538;2024-01-27T19:36:46;16.42;;;7.53;;
80576;SDS011;69937;52.420;10.538;2024-01-27T19:41:47;13.63;;;10.02;;
80576;SDS011;69937;52.420;10.538;2024-01-27T19:46:47;8.63;;;6.60;;
80576;SDS011;69937;52.420;10.538;2024-01-27T19:51:50;11.70;;;7.32;;
80576;SDS011;69937;52.420;10.538;2024-01-27T19:56:50;10.27;;;7.35;;
80576;SDS011;69937;52.420;10.538;2024-01-27T20:01:51;11.90;;;8.18;;
80576;SDS011;69937;52.420;10.538;2024-01-27T20:06:51;9.50;;;7.40;;
80576;SDS011;69937;52.420;10.538;2024-01-27T20:11:56;14.57;;;9.52;;
80576;SDS011;69937;52.420;10.538;2024-01-27T20:16:57;14.05;;;7.75;;
80576;SDS011;69937;52.420;10.538;2024-01-27T20:21:57;12.50;;;7.68;;
80576;SDS011;69937;52.420;10.538;2024-01-27T20:26:58;14.07;;;8.25;;
80576;SDS011;69937;52.420;10.538;2024-01-27T20:31:58;12.48;;;7.90;;
80576;SDS011;69937;52.420;10.538;2024-01-27T20:36:59;9.60;;;8.45;;
80576;SDS011;69937;52.420;10.538;2024-01-27T20:41:59;11.50;;;8.02;;
80576;SDS011;69937;52.420;10.538;2024-01-27T20:47:00;12.38;;;8.20;;
80576;SDS011;69937;52.420;10.538;2024-01-27T20:52:01;11.75;;;7.47;;
80576;SDS011;69937;52.420;10.538;2024-01-27T20:57:01;10.45;;;7.03;;
80576;SDS011;69937;52.420;10.538;2024-01-27T21:02:03;23.20;;;9.98;;
80576;SDS011;69937;52.420;10.538;2024-01-27T21:07:05;15.75;;;8.18;;
80576;SDS011;69937;52.420;10.538;2024-01-27T21:12:06;19.55;;;9.48;;
80576;SDS011;69937;52.420;10.538;2024-01-27T21:17:06;13.60;;;9.75;;
80576;SDS011;69937;52.420;10.538;2024-01-27T21:22:07;10.27;;;8.20;;
80576;SDS011;69937;52.420;10.538;2024-01-27T21:27:08;11.27;;;7.20;;
80576;SDS011;69937;52.420;10.538;2024-01-27T21:32:09;11.73;;;7.63;;
80576;SDS011;69937;52.420;10.538;2024-01-27T21:37:09;9.05;;;8.27;;
80576;SDS011;69937;52.420;10.538;2024-01-27T21:42:10;8.88;;;7.68;;
80576;SDS011;69937;52.420;10.538;2024-01-27T21:47:10;9.23;;;8.30;;
80576;SDS011;69937;52.420;10.538;2024-01-27T21:52:11;9.30;;;8.30;;
80576;SDS011;69937;52.420;10.538;2024-01-27T21:57:13;9.40;;;8.70;;
80576;SDS011;69937;52.420;10.538;2024-01-27T22:02:13;9.40;;;8.55;;
80576;SDS011;69937;52.420;10.538;2024-01-27T22:07:14;15.32;;;11.25;;
80576;SDS011;69937;52.420;10.538;2024-01-27T22:12:14;12.95;;;8.00;;
80576;SDS011;69937;52.420;10.538;2024-01-27T22:17:18;18.40;;;12.52;;
80576;SDS011;69937;52.420;10.538;2024-01-27T22:22:18;14.25;;;8.95;;
80576;SDS011;69937;52.420;10.538;2024-01-27T22:27:19;10.40;;;9.45;;
80576;SDS011;69937;52.420;10.538;2024-01-27T22:32:19;17.52;;;12.95;;
80576;SDS011;69937;52.420;10.538;2024-01-27T22:37:20;11.57;;;8.88;;
80576;SDS011;69937;52.420;10.538;2024-01-27T22:42:21;8.65;;;7.70;;
80576;SDS011;69937;52.420;10.538;2024-01-27T22:47:21;11.23;;;8.68;;
80576;SDS011;69937;52.420;10.538;2024-01-27T22:52:22;12.25;;;10.13;;
80576;SDS011;69937;52.420;10.538;2024-01-27T22:57:22;9.02;;;8.35;;
80576;SDS011;69937;52.420;10.538;2024-01-27T23:02:23;13.07;;;9.70;;
80576;SDS011;69937;52.420;10.538;2024-01-27T23:07:23;13.50;;;8.43;;
80576;SDS011;69937;52.420;10.538;2024-01-27T23:12:24;8.27;;;7.55;;
80576;SDS011;69937;52.420;10.538;2024-01-27T23:17:24;15.32;;;8.05;;
80576;SDS011;69937;52.420;10.538;2024-01-27T23:22:25;12.35;;;10.00;;
80576;SDS011;69937;52.420;10.538;2024-01-27T23:27:26;10.18;;;9.27;;
80576;SDS011;69937;52.420;10.538;2024-01-27T23:32:26;9.50;;;8.80;;
80576;SDS011;69937;52.420;10.538;2024-01-27T23:37:27;11.05;;;8.55;;
80576;SDS011;69937;52.420;10.538;2024-01-27T23:42:27;9.23;;;8.38;;
80576;SDS011;69937;52.420;10.538;2024-01-27T23:47:28;10.23;;;8.73;;
80576;SDS011;69937;52.420;10.538;2024-01-27T23:52:28;14.60;;;10.23;;
80576;SDS011;69937;52.420;10.538;2024-01-27T23:57:34;13.80;;;8.77;;
